createdAt,value
2017-09-12T00:01:58.328Z,68.70
2017-09-12T00:04:27.452Z,68.80
2017-09-12T00:06:57.443Z,68.50
2017-09-12T00:09:26.588Z,68.50
2017-09-12T00:11:55.918Z,68.50
2017-09-12T00:14:25.822Z,68.40
2017-09-12T00:16:55.404Z,68.30
2017-09-12T00:19:25.129Z,68.40
2017-09-12T00:21:54.354Z,68.60
2017-09-12T00:24:23.763Z,68.50
2017-09-12T00:26:53.643Z,68.70
2017-09-12T00:29:22.859Z,68.40
2017-09-12T00:31:52.100Z,68.50
2017-09-12T00:34:21.333Z,68.60
2017-09-12T00:36:50.542Z,68.40
2017-09-12T00:39:19.943Z,68.50
2017-09-12T00:41:49.320Z,68.40
2017-09-12T00:44:19.270Z,68.30
2017-09-12T00:46:48.440Z,68.20
2017-09-12T00:49:19.374Z,68.50
2017-09-12T00:51:48.704Z,68.40
2017-09-12T00:54:19.229Z,68.80
2017-09-12T00:56:48.977Z,68.80
2017-09-12T00:59:18.550Z,68.60
2017-09-12T01:01:48.274Z,68.70
2017-09-12T01:04:17.546Z,68.40
2017-09-12T01:06:46.819Z,68.40
2017-09-12T01:09:16.855Z,68.50
2017-09-12T01:11:46.876Z,68.40
2017-09-12T01:14:16.219Z,68.30
2017-09-12T01:16:45.476Z,68.30
2017-09-12T01:19:15.686Z,68.60
2017-09-12T01:21:45.031Z,68.60
2017-09-12T01:24:14.392Z,68.60
2017-09-12T01:26:46.027Z,69.00
2017-09-12T01:29:15.309Z,68.90
2017-09-12T01:31:44.686Z,69.00
2017-09-12T01:34:13.957Z,69.00
2017-09-12T01:36:43.247Z,69.00
2017-09-12T01:39:13.223Z,68.70
2017-09-12T01:41:43.245Z,68.60
2017-09-12T01:44:13.030Z,68.60
2017-09-12T01:46:42.222Z,68.60
2017-09-12T01:49:11.396Z,68.60
2017-09-12T01:51:40.927Z,68.50
2017-09-12T01:54:10.123Z,68.60
2017-09-12T01:56:39.433Z,68.90
2017-09-12T01:59:08.679Z,68.90
2017-09-12T02:01:38.806Z,69.30
2017-09-12T02:04:08.067Z,69.30
2017-09-12T02:06:38.250Z,69.50
2017-09-12T02:09:09.096Z,71.40
2017-09-12T02:11:38.374Z,73.00
2017-09-12T02:14:08.303Z,74.50
2017-09-12T02:16:37.501Z,74.50
2017-09-12T02:19:06.792Z,75.90
2017-09-12T02:21:36.929Z,77.20
2017-09-12T02:24:06.483Z,77.20
2017-09-12T02:26:35.635Z,78.40
2017-09-12T02:29:04.766Z,78.90
2017-09-12T02:31:34.035Z,79.40
2017-09-12T02:34:03.131Z,78.40
2017-09-12T02:36:32.943Z,79.30
2017-09-12T02:39:02.203Z,78.30
2017-09-12T02:41:32.191Z,78.50
2017-09-12T02:44:01.688Z,78.10
2017-09-12T02:46:30.920Z,76.70
2017-09-12T02:49:01.250Z,77.20
2017-09-12T02:51:31.178Z,78.30
2017-09-12T02:54:01.263Z,78.90
2017-09-12T02:56:30.429Z,79.00
2017-09-12T02:58:59.567Z,80.30
2017-09-12T03:01:28.716Z,81.20
2017-09-12T03:03:57.918Z,81.50
2017-09-12T03:06:27.312Z,82.00
2017-09-12T03:08:56.552Z,82.00
2017-09-12T03:11:25.670Z,82.30
2017-09-12T03:13:55.620Z,82.00
2017-09-12T03:16:24.913Z,82.00
2017-09-12T03:18:54.515Z,82.80
2017-09-12T03:21:23.806Z,83.60
2017-09-12T03:23:53.741Z,84.40
2017-09-12T03:26:23.080Z,84.30
2017-09-12T03:28:52.393Z,84.50
2017-09-12T03:31:22.090Z,86.90
2017-09-12T03:33:51.320Z,85.70
2017-09-12T03:36:21.322Z,86.30
2017-09-12T03:38:50.474Z,86.30
2017-09-12T03:41:19.818Z,87.10
2017-09-12T03:43:49.368Z,86.70
2017-09-12T03:46:18.622Z,86.10
2017-09-12T03:48:48.378Z,86.80
2017-09-12T03:51:17.631Z,84.40
2017-09-12T03:53:46.835Z,85.60
2017-09-12T03:56:16.984Z,86.40
2017-09-12T03:58:46.834Z,86.40
2017-09-12T04:01:16.342Z,87.10
2017-09-12T04:03:45.778Z,88.60
2017-09-12T04:06:15.104Z,88.90
2017-09-12T04:08:45.193Z,89.50
2017-09-12T04:11:16.214Z,89.50
2017-09-12T04:13:45.655Z,89.10
2017-09-12T04:16:15.835Z,89.90
2017-09-12T04:18:45.228Z,89.80
2017-09-12T04:21:14.610Z,90.00
2017-09-12T04:23:44.059Z,90.00
2017-09-12T04:26:14.639Z,89.50
2017-09-12T04:28:44.213Z,89.40
2017-09-12T04:31:14.536Z,88.20
2017-09-12T04:33:46.397Z,88.00
2017-09-12T04:36:15.658Z,88.00
2017-09-12T04:38:44.993Z,87.90
2017-09-12T04:41:14.960Z,88.00
2017-09-12T04:43:44.307Z,88.00
2017-09-12T04:46:14.420Z,88.00
2017-09-12T04:48:43.655Z,88.00
2017-09-12T04:51:13.144Z,87.40
2017-09-12T04:53:43.258Z,87.30
2017-09-12T04:56:12.588Z,87.30
2017-09-12T04:58:42.090Z,86.50
2017-09-12T05:01:11.369Z,86.90
2017-09-12T05:03:40.663Z,87.30
2017-09-12T05:06:10.706Z,86.50
2017-09-12T05:08:40.280Z,86.50
2017-09-12T05:11:10.323Z,85.90
2017-09-12T05:13:40.293Z,85.80
2017-09-12T05:16:10.863Z,86.10
2017-09-12T05:18:40.480Z,86.20
2017-09-12T05:21:09.872Z,87.00
2017-09-12T05:23:40.263Z,88.60
2017-09-12T05:26:09.743Z,88.60
2017-09-12T05:28:39.022Z,88.60
2017-09-12T05:31:08.285Z,89.80
2017-09-12T05:33:39.229Z,89.30
2017-09-12T05:36:08.379Z,89.20
2017-09-12T05:38:37.570Z,88.70
2017-09-12T05:41:06.825Z,88.70
2017-09-12T05:43:37.105Z,88.50
2017-09-12T05:46:06.847Z,88.50
2017-09-12T05:48:36.116Z,88.20
2017-09-12T05:51:05.565Z,88.10
2017-09-12T05:53:35.483Z,88.00
2017-09-12T05:56:05.540Z,87.20
2017-09-12T05:58:34.785Z,87.20
2017-09-12T06:01:04.176Z,87.40
2017-09-12T06:03:33.466Z,87.70
2017-09-12T06:06:03.668Z,86.90
2017-09-12T06:08:32.986Z,86.90
2017-09-12T06:11:03.229Z,87.10
2017-09-12T06:13:33.141Z,87.10
2017-09-12T06:16:02.521Z,86.70
2017-09-12T06:18:32.680Z,86.70
2017-09-12T06:21:02.807Z,86.60
2017-09-12T06:23:38.923Z,86.50
2017-09-12T06:26:08.879Z,86.70
2017-09-12T06:28:38.240Z,86.80
2017-09-12T06:31:07.606Z,86.00
2017-09-12T06:33:36.982Z,86.00
2017-09-12T06:36:06.183Z,85.10
2017-09-12T06:38:36.322Z,86.10
2017-09-12T06:41:05.766Z,86.10
2017-09-12T06:43:35.062Z,85.60
2017-09-12T06:46:04.427Z,84.60
2017-09-12T06:48:33.775Z,84.30
2017-09-12T06:51:03.380Z,84.70
2017-09-12T06:53:32.816Z,83.70
2017-09-12T06:56:02.796Z,82.30
2017-09-12T06:58:32.148Z,82.40
2017-09-12T07:01:01.605Z,82.20
2017-09-12T07:03:30.996Z,81.40
2017-09-12T07:06:00.263Z,81.50
2017-09-12T07:08:29.514Z,81.60
2017-09-12T07:10:59.312Z,81.60
2017-09-12T07:13:28.667Z,81.50
2017-09-12T07:15:58.116Z,81.40
2017-09-12T07:18:28.054Z,82.00
2017-09-12T07:20:57.320Z,83.20
2017-09-12T07:23:26.875Z,83.20
2017-09-12T07:25:56.958Z,83.30
2017-09-12T07:28:27.902Z,83.20
2017-09-12T07:30:57.495Z,83.60
2017-09-12T07:33:26.883Z,83.90
2017-09-12T07:35:56.183Z,84.10
2017-09-12T07:38:25.453Z,83.50
2017-09-12T07:40:55.860Z,82.50
2017-09-12T07:43:25.531Z,82.40
2017-09-12T07:45:54.808Z,82.40
2017-09-12T07:48:24.107Z,81.50
2017-09-12T07:50:54.452Z,82.50
2017-09-12T07:53:23.707Z,82.50
2017-09-12T07:55:53.846Z,81.70
2017-09-12T07:58:23.268Z,81.70
2017-09-12T08:00:52.505Z,81.50
2017-09-12T08:03:21.738Z,81.20
2017-09-12T08:05:51.018Z,80.60
2017-09-12T08:08:21.075Z,81.00
2017-09-12T08:10:50.284Z,81.00
2017-09-12T08:13:19.601Z,82.20
2017-09-12T08:15:49.043Z,81.30
2017-09-12T08:18:19.451Z,82.70
2017-09-12T08:20:49.382Z,82.70
2017-09-12T08:23:18.726Z,82.00
2017-09-12T08:25:48.007Z,81.20
2017-09-12T08:28:17.732Z,80.50
2017-09-12T08:30:47.374Z,80.40
2017-09-12T08:33:16.646Z,79.40
2017-09-12T08:35:46.049Z,78.90
2017-09-12T08:38:16.039Z,76.70
2017-09-12T08:40:45.987Z,75.30
2017-09-12T08:43:15.137Z,75.30
2017-09-12T08:45:45.277Z,75.50
2017-09-12T08:48:14.713Z,75.40
2017-09-12T08:50:44.388Z,74.30
2017-09-12T08:53:14.503Z,74.80
2017-09-12T08:55:43.920Z,74.70
2017-09-12T08:58:13.160Z,73.80
2017-09-12T09:00:42.398Z,74.60
2017-09-12T09:03:12.451Z,74.00
2017-09-12T09:05:41.712Z,74.00
2017-09-12T09:08:11.039Z,74.00
2017-09-12T09:10:40.703Z,74.50
2017-09-12T09:13:11.700Z,72.20
2017-09-12T09:15:41.865Z,71.50
2017-09-12T09:18:12.015Z,70.50
2017-09-12T09:20:42.412Z,70.40
2017-09-12T09:23:11.633Z,68.40
2017-09-12T09:25:42.001Z,68.10
2017-09-12T09:28:11.485Z,68.10
2017-09-12T09:30:40.806Z,68.30
2017-09-12T09:33:10.725Z,68.40
2017-09-12T09:35:40.296Z,68.90
2017-09-12T09:38:09.750Z,63.40
2017-09-12T09:40:38.895Z,59.70
2017-09-12T09:43:08.287Z,59.20
2017-09-12T09:45:39.144Z,54.10
2017-09-12T09:48:08.533Z,54.10
2017-09-12T09:50:38.827Z,52.80
2017-09-12T09:53:08.202Z,52.80
2017-09-12T09:55:37.591Z,51.50
2017-09-12T09:58:07.553Z,50.80
2017-09-12T10:00:37.853Z,50.60
2017-09-12T10:03:07.639Z,49.40
2017-09-12T10:05:37.818Z,46.90
2017-09-12T10:08:07.930Z,50.00
2017-09-12T10:10:38.284Z,54.00
2017-09-12T10:13:07.668Z,54.00
2017-09-12T10:15:37.684Z,58.40
2017-09-12T10:18:08.217Z,54.20
2017-09-12T10:20:38.546Z,54.20
2017-09-12T10:23:08.893Z,50.00
2017-09-12T10:25:39.122Z,50.00
2017-09-12T10:28:09.099Z,49.70
2017-09-12T10:30:39.427Z,51.50
2017-09-12T10:33:11.811Z,51.50
2017-09-12T10:35:42.572Z,54.80
2017-09-12T10:38:11.979Z,54.80
2017-09-12T10:40:41.349Z,55.80
2017-09-12T10:43:11.652Z,56.80
2017-09-12T10:45:41.110Z,56.80
2017-09-12T10:48:11.120Z,57.30
2017-09-12T10:50:42.217Z,56.60
2017-09-12T10:53:14.851Z,56.50
2017-09-12T10:55:44.414Z,54.90
2017-09-12T10:58:14.739Z,54.60
2017-09-12T11:00:46.306Z,55.50
2017-09-12T11:03:15.694Z,55.40
2017-09-12T11:05:46.339Z,54.50
2017-09-12T11:08:16.705Z,52.40
2017-09-12T11:10:47.179Z,50.50
2017-09-12T11:13:17.325Z,51.10
2017-09-12T11:15:48.198Z,51.10
2017-09-12T11:18:18.326Z,54.60
2017-09-12T11:20:47.695Z,54.60
2017-09-12T11:23:17.097Z,53.90
2017-09-12T11:25:47.307Z,53.90
2017-09-12T11:28:17.291Z,55.20
2017-09-12T11:30:47.420Z,56.30
2017-09-12T11:33:18.131Z,56.40
2017-09-12T11:35:47.940Z,56.40
2017-09-12T11:38:17.513Z,52.30
2017-09-12T11:40:47.087Z,47.10
2017-09-12T11:43:17.215Z,44.30
2017-09-12T11:45:47.705Z,47.70
2017-09-12T11:48:17.150Z,47.70
2017-09-12T11:50:46.529Z,50.30
2017-09-12T11:53:16.512Z,50.90
2017-09-12T11:55:47.049Z,50.90
2017-09-12T11:58:17.888Z,45.70
2017-09-12T12:00:48.159Z,41.50
2017-09-12T12:03:17.525Z,41.50
2017-09-12T12:05:48.521Z,38.50
2017-09-12T12:08:17.874Z,38.50
2017-09-12T12:10:47.286Z,37.90
2017-09-12T12:13:17.468Z,37.50
2017-09-12T12:15:47.027Z,37.50
2017-09-12T12:18:17.910Z,37.90
2017-09-12T12:20:47.370Z,38.00
2017-09-12T12:23:17.146Z,40.90
2017-09-12T12:26:09.046Z,39.80
2017-09-12T12:28:41.584Z,39.80
2017-09-12T12:31:11.033Z,40.20
2017-09-12T12:33:41.048Z,41.40
2017-09-12T12:36:12.314Z,41.60
2017-09-12T12:38:44.787Z,43.80
2017-09-12T12:41:14.505Z,45.60
2017-09-12T12:43:44.415Z,45.50
2017-09-12T12:46:14.615Z,40.40
2017-09-12T12:48:44.478Z,40.40
2017-09-12T12:51:15.337Z,38.70
2017-09-12T12:53:46.088Z,41.40
2017-09-12T12:56:46.347Z,41.30
2017-09-12T12:59:16.227Z,44.80
2017-09-12T13:01:45.547Z,47.50
2017-09-12T13:04:15.599Z,48.00
2017-09-12T13:06:46.753Z,48.90
2017-09-12T13:09:16.312Z,49.20
2017-09-12T13:11:47.496Z,49.70
2017-09-12T13:14:17.138Z,49.60
2017-09-12T13:16:46.504Z,50.40
2017-09-12T13:19:19.496Z,50.40
2017-09-12T13:21:50.181Z,49.40
2017-09-12T13:24:19.815Z,49.40
2017-09-12T13:26:50.000Z,49.70
2017-09-12T13:29:19.405Z,50.70
2017-09-12T13:31:48.853Z,51.10
2017-09-12T13:34:20.355Z,52.40
2017-09-12T13:36:53.904Z,52.50
2017-09-12T13:39:28.479Z,53.90
2017-09-12T13:42:12.389Z,67.20
2017-09-12T13:44:42.934Z,68.90
2017-09-12T13:47:13.744Z,68.90
2017-09-12T13:49:43.107Z,73.40
2017-09-12T13:52:12.823Z,73.80
2017-09-12T13:54:42.147Z,74.40
2017-09-12T13:57:17.330Z,75.10
2017-09-12T13:59:47.563Z,78.60
2017-09-12T14:02:16.899Z,76.30
2017-09-12T14:04:46.234Z,77.40
2017-09-12T14:07:17.402Z,76.80
2017-09-12T14:09:52.016Z,76.80
2017-09-12T14:12:21.650Z,76.60
2017-09-12T14:14:52.038Z,74.30
2017-09-12T14:17:21.882Z,74.30
2017-09-12T14:19:51.470Z,75.90
2017-09-12T14:22:21.691Z,73.60
2017-09-12T14:24:52.426Z,73.90
2017-09-12T14:27:22.715Z,72.90
2017-09-12T14:29:54.580Z,72.90
2017-09-12T14:32:24.252Z,73.10
2017-09-12T14:34:56.290Z,70.60
2017-09-12T14:37:28.200Z,70.60
2017-09-12T14:39:58.355Z,69.50
2017-09-12T14:42:28.583Z,66.20
2017-09-12T14:45:00.119Z,66.30
2017-09-12T14:47:30.505Z,64.90
2017-09-12T14:49:59.941Z,64.90
2017-09-12T14:52:29.561Z,64.20
2017-09-12T14:54:59.779Z,65.00
2017-09-12T14:57:30.034Z,66.50
2017-09-12T14:59:59.841Z,66.50
2017-09-12T15:02:30.285Z,72.10
2017-09-12T15:04:59.863Z,72.10
2017-09-12T15:07:29.508Z,72.70
2017-09-12T15:09:59.752Z,71.80
2017-09-12T15:12:29.303Z,70.40
2017-09-12T15:15:00.790Z,67.20
2017-09-12T15:17:30.366Z,67.10
2017-09-12T15:20:00.446Z,67.10
2017-09-12T15:22:30.029Z,67.10
2017-09-12T15:24:59.367Z,67.90
2017-09-12T15:27:28.717Z,68.10
2017-09-12T15:29:58.947Z,64.80
2017-09-12T15:32:28.376Z,64.80
2017-09-12T15:34:57.782Z,64.80
2017-09-12T15:37:28.163Z,64.20
2017-09-12T15:39:58.414Z,62.60
2017-09-12T15:42:28.024Z,62.50
2017-09-12T15:44:57.590Z,64.40
2017-09-12T15:47:27.006Z,61.50
2017-09-12T15:49:57.596Z,61.80
2017-09-12T15:52:26.858Z,61.80
2017-09-12T15:54:56.516Z,63.20
2017-09-12T15:57:26.714Z,61.80
2017-09-12T15:59:56.383Z,61.70
2017-09-12T16:02:26.550Z,61.20
2017-09-12T16:04:56.005Z,61.70
2017-09-12T16:07:26.258Z,64.40
2017-09-12T16:09:55.915Z,64.30
2017-09-12T16:12:26.349Z,63.20
2017-09-12T16:14:56.425Z,63.20
2017-09-12T16:17:25.751Z,63.90
2017-09-12T16:19:56.601Z,65.10
2017-09-12T16:22:30.150Z,66.40
2017-09-12T16:24:59.550Z,66.40
2017-09-12T16:27:29.791Z,65.10
2017-09-12T16:30:00.498Z,65.90
2017-09-12T16:32:31.124Z,66.00
2017-09-12T16:35:00.955Z,66.10
2017-09-12T16:37:31.163Z,67.90
2017-09-12T16:40:01.577Z,67.40
2017-09-12T16:42:31.470Z,66.60
2017-09-12T16:45:01.897Z,70.90
2017-09-12T16:47:34.492Z,70.80
2017-09-12T16:50:04.346Z,71.30
2017-09-12T16:52:34.771Z,70.90
2017-09-12T16:55:05.272Z,73.90
2017-09-12T16:57:35.026Z,73.90
2017-09-12T17:00:05.464Z,74.50
2017-09-12T17:02:35.862Z,75.00
2017-09-12T17:05:06.332Z,74.90
2017-09-12T17:07:37.269Z,75.90
2017-09-12T17:10:08.221Z,75.00
2017-09-12T17:12:41.417Z,75.40
2017-09-12T17:15:12.692Z,75.60
2017-09-12T17:20:38.198Z,75.30
2017-09-12T17:23:11.196Z,74.70
2017-09-12T17:26:02.586Z,75.20
2017-09-12T17:28:33.346Z,75.10
2017-09-12T17:31:05.951Z,75.00
2017-09-12T17:33:36.123Z,75.10
2017-09-12T17:36:05.991Z,75.40
2017-09-12T17:38:36.827Z,74.70
2017-09-12T17:41:06.371Z,75.10
2017-09-12T17:43:35.979Z,75.40
2017-09-12T17:46:06.245Z,76.20
2017-09-12T17:48:36.633Z,75.40
2017-09-12T17:51:07.154Z,74.90
2017-09-12T17:53:38.884Z,74.60
2017-09-12T17:56:09.612Z,74.60
2017-09-12T17:58:39.373Z,74.90
2017-09-12T18:01:09.478Z,74.10
2017-09-12T18:03:39.106Z,74.50
2017-09-12T18:06:08.592Z,74.70
2017-09-12T18:08:38.880Z,75.50
2017-09-12T18:11:10.602Z,75.40
2017-09-12T18:13:40.996Z,75.50
2017-09-12T18:16:12.578Z,75.10
2017-09-12T18:18:42.846Z,75.40
2017-09-12T18:21:14.487Z,75.50
2017-09-12T18:23:45.183Z,76.10
2017-09-12T18:26:14.867Z,76.00
2017-09-12T18:28:45.877Z,75.80
2017-09-12T18:31:15.496Z,75.80
2017-09-12T18:33:46.892Z,76.30
2017-09-12T18:36:18.434Z,76.20
2017-09-12T18:38:48.250Z,75.90
2017-09-12T18:41:42.623Z,75.80
2017-09-12T18:44:45.206Z,75.70
2017-09-12T18:47:43.504Z,75.30
2017-09-12T18:50:31.799Z,75.30
2017-09-12T18:53:08.573Z,75.50
2017-09-12T18:55:49.548Z,75.00
2017-09-12T18:59:37.003Z,75.20
2017-09-12T19:02:09.331Z,73.80
2017-09-12T19:04:40.814Z,74.40
2017-09-12T19:07:15.214Z,73.70
2017-09-12T19:09:46.809Z,71.40
2017-09-12T19:12:41.088Z,71.80
2017-09-12T19:15:12.706Z,71.70
2017-09-12T19:17:46.452Z,71.00
2017-09-12T19:20:17.837Z,71.00
2017-09-12T19:22:49.328Z,71.00
2017-09-12T19:25:20.499Z,70.50
2017-09-12T19:27:51.387Z,71.10
2017-09-12T19:30:22.371Z,71.70
2017-09-12T19:32:54.717Z,71.80
2017-09-12T19:35:30.164Z,71.90
2017-09-12T19:38:00.016Z,72.70
2017-09-12T19:40:30.129Z,72.40
2017-09-12T19:43:02.162Z,72.70
2017-09-12T19:45:33.086Z,72.40
2017-09-12T19:48:07.820Z,72.00
2017-09-12T19:50:38.312Z,72.40
2017-09-12T19:53:10.181Z,72.30
2017-09-12T19:55:42.710Z,72.20
2017-09-12T19:58:12.316Z,72.90
2017-09-12T20:00:42.476Z,73.10
2017-09-12T20:03:15.233Z,74.20
2017-09-12T20:05:45.708Z,74.40
2017-09-12T20:08:19.317Z,74.30
2017-09-12T20:10:51.887Z,73.50
2017-09-12T20:13:24.522Z,73.50
2017-09-12T20:15:54.662Z,73.40
2017-09-12T20:18:25.435Z,72.80
2017-09-12T20:20:55.593Z,72.80
2017-09-12T20:23:25.253Z,73.10
2017-09-12T20:25:56.499Z,72.90
2017-09-12T20:28:26.928Z,72.40
2017-09-12T20:30:56.598Z,72.80
2017-09-12T20:33:30.653Z,73.50
2017-09-12T20:36:03.919Z,74.00
2017-09-12T20:38:35.860Z,74.00
2017-09-12T20:41:12.594Z,74.20
2017-09-12T20:43:44.881Z,74.30
2017-09-12T20:46:15.779Z,74.10
2017-09-12T20:48:46.625Z,74.10
2017-09-12T20:51:20.340Z,74.00
2017-09-12T20:53:51.290Z,74.20
2017-09-12T20:56:21.929Z,73.90
2017-09-12T20:58:55.074Z,73.90
2017-09-12T21:01:26.118Z,73.90
2017-09-12T21:03:57.170Z,73.70
2017-09-12T21:06:27.331Z,73.60
2017-09-12T21:08:59.110Z,73.60
2017-09-12T21:11:30.336Z,73.30
2017-09-12T21:13:59.910Z,73.70
2017-09-12T21:16:30.548Z,73.10
2017-09-12T21:19:00.389Z,73.00
2017-09-12T21:21:32.509Z,72.60
2017-09-12T21:24:05.259Z,72.50
2017-09-12T21:26:34.742Z,72.50
2017-09-12T21:29:05.138Z,72.50
2017-09-12T21:31:35.358Z,72.60
2017-09-12T21:34:05.197Z,72.90
2017-09-12T21:36:36.968Z,72.70
2017-09-12T21:39:07.340Z,72.70
2017-09-12T21:41:38.375Z,72.70
2017-09-12T21:44:08.981Z,72.70
2017-09-12T21:46:38.898Z,72.70
2017-09-12T21:49:17.601Z,73.00
2017-09-12T21:51:51.528Z,73.70
2017-09-12T21:54:22.998Z,73.20
2017-09-12T22:00:31.643Z,73.50
2017-09-12T22:03:30.140Z,73.90
2017-09-12T22:06:01.567Z,74.10
2017-09-12T22:08:36.210Z,74.40
2017-09-12T22:11:07.044Z,74.30
2017-09-12T22:13:37.784Z,75.10
2017-09-12T22:16:07.537Z,75.10
2017-09-12T22:18:38.189Z,75.20
2017-09-12T22:21:16.550Z,75.40
2017-09-12T22:23:46.885Z,75.40
2017-09-12T22:26:17.044Z,75.50
2017-09-12T22:28:48.266Z,75.30
2017-09-12T22:31:18.245Z,75.20
2017-09-12T22:33:47.520Z,75.00
2017-09-12T22:36:17.591Z,74.60
2017-09-12T22:38:47.373Z,74.50
2017-09-12T22:41:17.606Z,74.80
2017-09-12T22:43:47.020Z,74.80
2017-09-12T22:46:16.251Z,75.10
2017-09-12T22:48:47.041Z,75.30
2017-09-12T22:51:16.258Z,75.30
2017-09-12T22:53:45.535Z,75.70
2017-09-12T22:56:14.812Z,76.00
2017-09-12T22:58:43.992Z,75.80
2017-09-12T23:01:14.385Z,75.70
2017-09-12T23:03:43.815Z,75.70
2017-09-12T23:06:13.243Z,75.70
2017-09-12T23:08:43.195Z,75.50
2017-09-12T23:11:12.351Z,75.50
2017-09-12T23:13:42.335Z,75.40
2017-09-12T23:16:11.909Z,75.40
2017-09-12T23:18:41.100Z,75.50
2017-09-12T23:21:10.337Z,75.20
2017-09-12T23:23:39.596Z,75.30
2017-09-12T23:26:08.988Z,75.10
2017-09-12T23:28:38.943Z,75.00
2017-09-12T23:31:09.390Z,75.00
2017-09-12T23:33:39.746Z,75.00
2017-09-12T23:36:11.471Z,74.90
2017-09-12T23:38:42.068Z,75.10
2017-09-12T23:41:11.929Z,75.10
2017-09-12T23:43:41.869Z,75.00
2017-09-12T23:46:11.049Z,75.10
2017-09-12T23:48:40.183Z,75.00
2017-09-12T23:51:09.433Z,74.80
2017-09-12T23:53:38.964Z,74.60
2017-09-12T23:56:09.435Z,74.60
2017-09-12T23:58:38.634Z,74.50
